Nyk Delphinus — 3ENU7 — position and weather

sailwx.info

Track history (hours):
 
Tides and Currents Weather Stations Pressure Air Temp Water Temp Dewpoint Dewpoint Depression Visibility Wind Speed Wind Dir Waves Ship Positions

Nyk Delphinus

Last reported at 2018-Jan-23 09:17 UTC. Time now 2018-Jun-20 05:19 UTC.
Position N 34°41' E 135°17'.
Warning: this ship's position is months out of date.

Length 294 m; draft 8.7 m.

Type: Cargo ship. MMSI: 352776000.

Date/timePositionNaut miles runAvg speedWind from/ knotsBaromVisibWave heightAir tempDewpointWater temp
2018-Jan-23 09:17N 34°41' E 135°17'0 0.0
2018-Jan-23 08:59N 34°41' E 135°17'0 0.0
2018-Jan-23 08:29N 34°41' E 135°17'0 0.0
2018-Jan-23 07:59N 34°41' E 135°17'0 0.0
2018-Jan-23 07:29N 34°41' E 135°17'0 0.0
2018-Jan-23 06:59N 34°41' E 135°17'0 0.0
2018-Jan-23 06:29N 34°41' E 135°17'0 0.0
2018-Jan-23 05:59N 34°41' E 135°17'0 0.0
2018-Jan-23 05:29N 34°41' E 135°17'0 0.0
2018-Jan-23 04:59N 34°41' E 135°17'0 0.0
2018-Jan-23 04:29N 34°41' E 135°17'0 0.0
2018-Jan-23 03:59N 34°41' E 135°17'0 0.0
2018-Jan-23 03:29N 34°41' E 135°17'0 0.0
2018-Jan-23 02:59N 34°41' E 135°17'0 0.0
2018-Jan-23 02:29N 34°41' E 135°17'0 0.0
2018-Jan-23 01:59N 34°41' E 135°17'0 0.0
2018-Jan-23 01:29N 34°41' E 135°17'0 0.0
2018-Jan-23 00:59N 34°41' E 135°17'0 0.0
2018-Jan-23 00:29N 34°41' E 135°17'0 0.0
2018-Jan-22 23:59N 34°41' E 135°17'0 0.0
2018-Jan-22 23:29N 34°41' E 135°17'0 0.0
2018-Jan-22 23:00N 34°41' E 135°17'2 4.2
2018-Jan-22 22:31N 34°39' E 135°18'510.7
2018-Jan-22 22:00N 34°34' E 135°16'510.5
2018-Jan-22 21:30N 34°30' E 135°12'611.9
2018-Jan-22 21:00N 34°26' E 135°07'815.7
2018-Jan-22 20:30N 34°20' E 135°01'816.1
2018-Jan-22 20:00N 34°12' E 134°59'5 9.4
2018-Jan-22 19:30N 34°07' E 134°58'611.3
2018-Jan-22 19:00N 34°02' E 134°57'714.6
2018-Jan-22 18:30N 33°54' E 134°58'816.3
2018-Jan-22 18:00N 33°46' E 134°57'815.8
2018-Jan-22 17:30N 33°39' E 135°00'816.0
2018-Jan-22 17:00N 33°31' E 135°04'1118.9
2018-Jan-22 16:26N 33°24' E 135°14'1119.3
2018-Jan-22 15:50N 33°19' E 135°26'10716.3
2018-Jan-22 09:19N 34°28' E 137°03'412.2
2018-Jan-22 09:00N 34°32' E 137°02'610.2
2018-Jan-22 08:24N 34°36' E 136°56'614.8
2018-Jan-22 08:00N 34°40' E 136°51'816.2
2018-Jan-22 07:31N 34°47' E 136°46'816.1
2018-Jan-22 07:00N 34°55' E 136°46'612.8
2018-Jan-22 06:30N 35°01' E 136°50'1 2.4
2018-Jan-22 06:00N 35°02' E 136°49'0 0.0
2018-Jan-22 05:29N 35°02' E 136°49'0 0.0
2018-Jan-22 04:59N 35°02' E 136°49'0 0.0
2018-Jan-22 04:29N 35°02' E 136°49'0 0.0
2018-Jan-22 03:59N 35°02' E 136°49'0 0.0
2018-Jan-22 03:29N 35°02' E 136°49'0 0.0
2018-Jan-22 02:59N 35°02' E 136°49'0 0.0
2018-Jan-22 02:29N 35°02' E 136°49'0 0.0
2018-Jan-22 01:59N 35°02' E 136°49'0 0.0
2018-Jan-22 01:29N 35°02' E 136°49'0 0.0
2018-Jan-22 00:59N 35°02' E 136°49'0 0.0
2018-Jan-22 00:29N 35°02' E 136°49'0 0.0
2018-Jan-21 23:59N 35°02' E 136°49'0 0.0
2018-Jan-21 23:29N 35°02' E 136°49'0 0.0
2018-Jan-21 22:59N 35°02' E 136°49'0 0.0
2018-Jan-21 22:30N 35°02' E 136°49'1 2.1
2018-Jan-21 22:01N 35°01' E 136°50'510.1
2018-Jan-21 21:30N 34°57' E 136°47'714.6
2018-Jan-21 21:00N 34°50' E 136°47'1019.3
2018-Jan-21 20:30N 34°41' E 136°52'917.4
2018-Jan-21 20:00N 34°35' E 136°59'612.6
2018-Jan-21 19:30N 34°31' E 137°05'4 8.1
2018-Jan-21 18:59N 34°28' E 137°09'4 7.7
2018-Jan-21 18:30N 34°27' E 137°13'4 7.2
2018-Jan-21 18:00N 34°27' E 137°18'610.2
2018-Jan-21 17:27N 34°27' E 137°24'4011.2
2018-Jan-21 13:52N 34°26' E 138°13'811.3
2018-Jan-21 13:07N 34°27' E 138°23'211.3
2018-Jan-21 12:58N 34°27' E 138°25'611.5
2018-Jan-21 12:25N 34°27' E 138°33'711.3
2018-Jan-21 11:50N 34°28' E 138°41'411.0
2018-Jan-21 11:26N 34°28' E 138°46'510.8
2018-Jan-21 11:00N 34°29' E 138°52'510.6
2018-Jan-21 10:30N 34°30' E 138°58'610.7
2018-Jan-21 09:58N 34°32' E 139°05'511.9
2018-Jan-21 09:31N 34°34' E 139°11'611.8
2018-Jan-21 09:00N 34°36' E 139°18'611.8
2018-Jan-21 08:30N 34°37' E 139°25'612.0
2018-Jan-21 07:58N 34°42' E 139°30'612.8
2018-Jan-21 07:28N 34°48' E 139°34'613.0
2018-Jan-21 07:00N 34°53' E 139°37'713.5
2018-Jan-21 06:30N 34°59' E 139°41'713.7
2018-Jan-21 06:00N 35°05' E 139°44'612.6
2018-Jan-21 05:30N 35°12' E 139°46'611.5
2018-Jan-21 05:00N 35°17' E 139°45'713.1
2018-Jan-21 04:30N 35°23' E 139°42'816.6
2018-Jan-21 04:01N 35°29' E 139°50'612.3
2018-Jan-21 03:30N 35°35' E 139°48'2 3.0
2018-Jan-21 03:00N 35°36' E 139°46'0 0.0
2018-Jan-21 02:26N 35°36' E 139°46'0 0.0
2018-Jan-21 01:59N 35°36' E 139°46'0 0.0
2018-Jan-21 01:29N 35°36' E 139°46'0 0.0
2018-Jan-21 00:58N 35°36' E 139°46'0 0.0
2018-Jan-21 00:29N 35°36' E 139°46'0 0.0
2018-Jan-20 23:59N 35°36' E 139°46'0 0.0
2018-Jan-20 23:17N 35°36' E 139°46'0 0.0
2018-Jan-20 22:59N 35°36' E 139°46'1 2.4
2018-Jan-20 22:30N 35°35' E 139°47'5 9.9
2018-Jan-20 22:01N 35°32' E 139°52'612.2
2018-Jan-20 21:30N 35°26' E 139°49'612.7
2018-Jan-20 21:00N 35°21' E 139°45'611.7
2018-Jan-20 20:30N 35°15' E 139°47'611.6
2018-Jan-20 20:00N 35°09' E 139°46'4 8.2
2018-Jan-20 19:30N 35°05' E 139°45'2 3.4
2018-Jan-20 19:00N 35°04' E 139°44'1 2.1
2018-Jan-20 18:31N 35°03' E 139°43'2 4.7
2018-Jan-20 18:00N 35°01' E 139°42'2 4.4
2018-Jan-20 17:30N 34°59' E 139°40'3 6.4
2018-Jan-20 17:01N 34°57' E 139°38'510.3
2018-Jan-20 16:30N 34°52' E 139°37'5 9.2
2018-Jan-20 16:01N 34°47' E 139°39'5 9.2
2018-Jan-20 15:25N 34°45' E 139°45'410.0
2018-Jan-20 14:59N 34°45' E 139°50'610.4
2018-Jan-20 14:23N 34°45' E 139°57'510.3
2018-Jan-20 13:55N 34°45' E 140°03'4 9.6
2018-Jan-20 13:30N 34°45' E 140°08'610.4
2018-Jan-20 12:56N 34°45' E 140°15'  
Track history (hours):
 
Tides and Currents Weather Stations Pressure Air Temp Water Temp Dewpoint Dewpoint Depression Visibility Wind Speed Wind Dir Waves Ship Positions

Nyk Delphinus

Last reported at 2018-Jan-23 09:17 UTC. Time now 2018-Jun-20 05:19 UTC.
Position N 34°41' E 135°17'.
Warning: this ship's position is months out of date.

Length 294 m; draft 8.7 m.

Type: Cargo ship. MMSI: 352776000.

Date/timePositionNaut miles runAvg speedWind from/ knotsBaromVisibWave heightAir tempDewpointWater temp
2018-Jan-23 09:17N 34°41' E 135°17'0 0.0
2018-Jan-23 08:59N 34°41' E 135°17'0 0.0
2018-Jan-23 08:29N 34°41' E 135°17'0 0.0
2018-Jan-23 07:59N 34°41' E 135°17'0 0.0
2018-Jan-23 07:29N 34°41' E 135°17'0 0.0
2018-Jan-23 06:59N 34°41' E 135°17'0 0.0
2018-Jan-23 06:29N 34°41' E 135°17'0 0.0
2018-Jan-23 05:59N 34°41' E 135°17'0 0.0
2018-Jan-23 05:29N 34°41' E 135°17'0 0.0
2018-Jan-23 04:59N 34°41' E 135°17'0 0.0
2018-Jan-23 04:29N 34°41' E 135°17'0 0.0
2018-Jan-23 03:59N 34°41' E 135°17'0 0.0
2018-Jan-23 03:29N 34°41' E 135°17'0 0.0
2018-Jan-23 02:59N 34°41' E 135°17'0 0.0
2018-Jan-23 02:29N 34°41' E 135°17'0 0.0
2018-Jan-23 01:59N 34°41' E 135°17'0 0.0
2018-Jan-23 01:29N 34°41' E 135°17'0 0.0
2018-Jan-23 00:59N 34°41' E 135°17'0 0.0
2018-Jan-23 00:29N 34°41' E 135°17'0 0.0
2018-Jan-22 23:59N 34°41' E 135°17'0 0.0
2018-Jan-22 23:29N 34°41' E 135°17'0 0.0
2018-Jan-22 23:00N 34°41' E 135°17'2 4.2
2018-Jan-22 22:31N 34°39' E 135°18'510.7
2018-Jan-22 22:00N 34°34' E 135°16'510.5
2018-Jan-22 21:30N 34°30' E 135°12'611.9
2018-Jan-22 21:00N 34°26' E 135°07'815.7
2018-Jan-22 20:30N 34°20' E 135°01'816.1
2018-Jan-22 20:00N 34°12' E 134°59'5 9.4
2018-Jan-22 19:30N 34°07' E 134°58'611.3
2018-Jan-22 19:00N 34°02' E 134°57'714.6
2018-Jan-22 18:30N 33°54' E 134°58'816.3
2018-Jan-22 18:00N 33°46' E 134°57'815.8
2018-Jan-22 17:30N 33°39' E 135°00'816.0
2018-Jan-22 17:00N 33°31' E 135°04'1118.9
2018-Jan-22 16:26N 33°24' E 135°14'1119.3
2018-Jan-22 15:50N 33°19' E 135°26'10716.3
2018-Jan-22 09:19N 34°28' E 137°03'412.2
2018-Jan-22 09:00N 34°32' E 137°02'610.2
2018-Jan-22 08:24N 34°36' E 136°56'614.8
2018-Jan-22 08:00N 34°40' E 136°51'816.2
2018-Jan-22 07:31N 34°47' E 136°46'816.1
2018-Jan-22 07:00N 34°55' E 136°46'612.8
2018-Jan-22 06:30N 35°01' E 136°50'1 2.4
2018-Jan-22 06:00N 35°02' E 136°49'0 0.0
2018-Jan-22 05:29N 35°02' E 136°49'0 0.0
2018-Jan-22 04:59N 35°02' E 136°49'0 0.0
2018-Jan-22 04:29N 35°02' E 136°49'0 0.0
2018-Jan-22 03:59N 35°02' E 136°49'0 0.0
2018-Jan-22 03:29N 35°02' E 136°49'0 0.0
2018-Jan-22 02:59N 35°02' E 136°49'0 0.0
2018-Jan-22 02:29N 35°02' E 136°49'0 0.0
2018-Jan-22 01:59N 35°02' E 136°49'0 0.0
2018-Jan-22 01:29N 35°02' E 136°49'0 0.0
2018-Jan-22 00:59N 35°02' E 136°49'0 0.0
2018-Jan-22 00:29N 35°02' E 136°49'0 0.0
2018-Jan-21 23:59N 35°02' E 136°49'0 0.0
2018-Jan-21 23:29N 35°02' E 136°49'0 0.0
2018-Jan-21 22:59N 35°02' E 136°49'0 0.0
2018-Jan-21 22:30N 35°02' E 136°49'1 2.1
2018-Jan-21 22:01N 35°01' E 136°50'510.1
2018-Jan-21 21:30N 34°57' E 136°47'714.6
2018-Jan-21 21:00N 34°50' E 136°47'1019.3
2018-Jan-21 20:30N 34°41' E 136°52'917.4
2018-Jan-21 20:00N 34°35' E 136°59'612.6
2018-Jan-21 19:30N 34°31' E 137°05'4 8.1
2018-Jan-21 18:59N 34°28' E 137°09'4 7.7
2018-Jan-21 18:30N 34°27' E 137°13'4 7.2
2018-Jan-21 18:00N 34°27' E 137°18'610.2
2018-Jan-21 17:27N 34°27' E 137°24'4011.2
2018-Jan-21 13:52N 34°26' E 138°13'811.3
2018-Jan-21 13:07N 34°27' E 138°23'211.3
2018-Jan-21 12:58N 34°27' E 138°25'611.5
2018-Jan-21 12:25N 34°27' E 138°33'711.3
2018-Jan-21 11:50N 34°28' E 138°41'411.0
2018-Jan-21 11:26N 34°28' E 138°46'510.8
2018-Jan-21 11:00N 34°29' E 138°52'510.6
2018-Jan-21 10:30N 34°30' E 138°58'610.7
2018-Jan-21 09:58N 34°32' E 139°05'511.9
2018-Jan-21 09:31N 34°34' E 139°11'611.8
2018-Jan-21 09:00N 34°36' E 139°18'611.8
2018-Jan-21 08:30N 34°37' E 139°25'612.0
2018-Jan-21 07:58N 34°42' E 139°30'612.8
2018-Jan-21 07:28N 34°48' E 139°34'613.0
2018-Jan-21 07:00N 34°53' E 139°37'713.5
2018-Jan-21 06:30N 34°59' E 139°41'713.7
2018-Jan-21 06:00N 35°05' E 139°44'612.6
2018-Jan-21 05:30N 35°12' E 139°46'611.5
2018-Jan-21 05:00N 35°17' E 139°45'713.1
2018-Jan-21 04:30N 35°23' E 139°42'816.6
2018-Jan-21 04:01N 35°29' E 139°50'612.3
2018-Jan-21 03:30N 35°35' E 139°48'2 3.0
2018-Jan-21 03:00N 35°36' E 139°46'0 0.0
2018-Jan-21 02:26N 35°36' E 139°46'0 0.0
2018-Jan-21 01:59N 35°36' E 139°46'0 0.0
2018-Jan-21 01:29N 35°36' E 139°46'0 0.0
2018-Jan-21 00:58N 35°36' E 139°46'0 0.0
2018-Jan-21 00:29N 35°36' E 139°46'0 0.0
2018-Jan-20 23:59N 35°36' E 139°46'0 0.0
2018-Jan-20 23:17N 35°36' E 139°46'0 0.0
2018-Jan-20 22:59N 35°36' E 139°46'1 2.4
2018-Jan-20 22:30N 35°35' E 139°47'5 9.9
2018-Jan-20 22:01N 35°32' E 139°52'612.2
2018-Jan-20 21:30N 35°26' E 139°49'612.7
2018-Jan-20 21:00N 35°21' E 139°45'611.7
2018-Jan-20 20:30N 35°15' E 139°47'611.6
2018-Jan-20 20:00N 35°09' E 139°46'4 8.2
2018-Jan-20 19:30N 35°05' E 139°45'2 3.4
2018-Jan-20 19:00N 35°04' E 139°44'1 2.1
2018-Jan-20 18:31N 35°03' E 139°43'2 4.7
2018-Jan-20 18:00N 35°01' E 139°42'2 4.4
2018-Jan-20 17:30N 34°59' E 139°40'3 6.4
2018-Jan-20 17:01N 34°57' E 139°38'510.3
2018-Jan-20 16:30N 34°52' E 139°37'5 9.2
2018-Jan-20 16:01N 34°47' E 139°39'5 9.2
2018-Jan-20 15:25N 34°45' E 139°45'410.0
2018-Jan-20 14:59N 34°45' E 139°50'610.4
2018-Jan-20 14:23N 34°45' E 139°57'510.3
2018-Jan-20 13:55N 34°45' E 140°03'4 9.6
2018-Jan-20 13:30N 34°45' E 140°08'610.4
2018-Jan-20 12:56N 34°45' E 140°15'  

Dump ship's entire track history